createdAt,value
2019-05-03T00:03:26.156Z,11.02
2019-05-03T00:08:21.750Z,11.02
2019-05-03T00:13:15.884Z,11.02
2019-05-03T00:18:11.674Z,10.91
2019-05-03T00:23:05.747Z,11.03
2019-05-03T00:28:01.731Z,11.00
2019-05-03T00:32:55.608Z,11.00
2019-05-03T00:37:52.596Z,11.10
2019-05-03T00:42:46.767Z,11.10
2019-05-03T00:47:42.165Z,11.03
2019-05-03T00:52:36.251Z,11.07
2019-05-03T00:57:32.095Z,11.10
2019-05-03T01:02:26.368Z,10.95
2019-05-03T01:07:22.241Z,11.11
2019-05-03T01:12:16.408Z,10.95
2019-05-03T01:17:11.777Z,11.08
2019-05-03T01:22:05.982Z,10.97
2019-05-03T01:27:01.936Z,11.02
2019-05-03T01:31:56.042Z,10.93
2019-05-03T01:36:51.764Z,10.94
2019-05-03T01:41:45.888Z,10.99
2019-05-03T01:46:39.837Z,10.99
2019-05-03T01:51:42.071Z,11.03
2019-05-03T01:56:36.073Z,10.96
2019-05-03T02:01:51.580Z,11.04
2019-05-03T02:06:45.840Z,11.05
2019-05-03T02:11:41.983Z,10.94
2019-05-03T02:16:35.683Z,10.85
2019-05-03T02:21:29.667Z,10.84
2019-05-03T02:26:23.647Z,10.82
2019-05-03T02:31:17.597Z,10.75
2019-05-03T02:36:13.655Z,10.73
2019-05-03T02:41:07.409Z,10.92
2019-05-03T02:46:20.105Z,10.92
2019-05-03T02:51:15.639Z,10.59
2019-05-03T02:56:21.074Z,10.68
2019-05-03T03:01:06.661Z,10.68
2019-05-03T03:06:02.601Z,10.85
2019-05-03T03:11:00.381Z,10.84
2019-05-03T03:15:56.142Z,10.87
2019-05-03T03:20:51.812Z,10.71
2019-05-03T03:25:46.911Z,10.63
2019-05-03T03:31:01.408Z,10.44
2019-05-03T03:36:01.132Z,10.28
2019-05-03T03:40:55.319Z,10.04
2019-05-03T03:45:49.202Z,9.84
2019-05-03T03:50:45.749Z,9.81
2019-05-03T03:55:42.566Z,9.81
2019-05-03T04:00:36.656Z,9.88
2019-05-03T04:05:30.773Z,10.10
2019-05-03T04:10:26.252Z,10.17
2019-05-03T04:15:26.039Z,10.16
2019-05-03T04:20:25.747Z,10.19
2019-05-03T04:25:20.731Z,10.03
2019-05-03T04:30:16.564Z,10.26
2019-05-03T04:35:10.782Z,10.33
2019-05-03T04:40:06.241Z,10.44
2019-05-03T04:45:00.395Z,10.53
2019-05-03T04:49:55.525Z,10.55
2019-05-03T04:54:51.630Z,10.49
2019-05-03T04:59:45.597Z,10.49
2019-05-03T05:04:39.653Z,10.70
2019-05-03T05:09:34.899Z,10.45
2019-05-03T05:14:29.100Z,10.26
2019-05-03T05:19:25.460Z,9.86
2019-05-03T05:24:19.602Z,10.29
2019-05-03T05:29:25.345Z,10.61
2019-05-03T05:34:19.593Z,10.89
2019-05-03T05:39:18.473Z,11.03
2019-05-03T05:44:11.422Z,11.01
2019-05-03T05:49:07.420Z,10.55
2019-05-03T05:54:01.399Z,10.49
2019-05-03T05:59:04.479Z,10.68
2019-05-03T06:03:58.477Z,11.13
2019-05-03T06:08:54.803Z,11.59
2019-05-03T06:13:56.763Z,11.83
2019-05-03T06:18:54.388Z,11.33
2019-05-03T06:23:53.190Z,11.39
2019-05-03T06:28:47.157Z,11.25
2019-05-03T06:33:41.127Z,11.01
2019-05-03T06:38:35.090Z,11.08
2019-05-03T06:43:29.048Z,11.08
2019-05-03T06:48:27.969Z,11.28
2019-05-03T06:53:19.115Z,11.34
2019-05-03T06:58:15.183Z,11.62
2019-05-03T07:03:10.865Z,12.12
2019-05-03T07:08:12.682Z,11.97
2019-05-03T07:13:08.919Z,11.61
2019-05-03T07:18:02.706Z,11.60
2019-05-03T07:22:56.704Z,11.88
2019-05-03T07:27:50.758Z,11.94
2019-05-03T07:32:46.644Z,11.98
2019-05-03T07:37:40.591Z,12.70
2019-05-03T07:42:34.796Z,12.54
2019-05-03T07:47:28.800Z,12.67
2019-05-03T07:52:22.810Z,12.83
2019-05-03T07:57:30.995Z,13.38
2019-05-03T08:02:27.263Z,13.85
2019-05-03T08:07:23.097Z,13.92
2019-05-03T08:12:16.791Z,13.65
2019-05-03T08:17:10.763Z,13.91
2019-05-03T08:22:05.133Z,14.99
2019-05-03T08:26:59.260Z,15.02
2019-05-03T08:31:57.857Z,14.41
2019-05-03T08:36:56.448Z,14.54
2019-05-03T08:41:55.467Z,14.04
2019-05-03T08:46:49.577Z,14.48
2019-05-03T08:51:44.383Z,15.31
2019-05-03T08:56:38.439Z,15.97
2019-05-03T09:01:32.419Z,15.61
2019-05-03T09:06:26.580Z,15.03
2019-05-03T09:11:30.731Z,15.41
2019-05-03T09:16:16.792Z,15.87
2019-05-03T09:21:11.000Z,15.48
2019-05-03T09:26:05.134Z,15.91
2019-05-03T09:30:59.181Z,15.93
2019-05-03T09:35:54.994Z,15.79
2019-05-03T09:40:51.846Z,15.71
2019-05-03T09:45:45.774Z,14.61
2019-05-03T09:50:39.916Z,14.48
2019-05-03T09:55:39.055Z,15.69
2019-05-03T10:00:33.137Z,16.44
2019-05-03T10:05:27.254Z,15.74
2019-05-03T10:10:21.317Z,15.65
2019-05-03T10:15:37.361Z,15.08
2019-05-03T10:20:31.419Z,15.53
2019-05-03T10:25:25.537Z,15.73
2019-05-03T10:30:24.148Z,17.43
2019-05-03T10:35:19.162Z,16.68
2019-05-03T10:40:16.993Z,17.36
2019-05-03T10:45:11.164Z,17.96
2019-05-03T10:50:05.437Z,18.57
2019-05-03T10:54:59.424Z,18.27
2019-05-03T10:59:55.442Z,17.24
2019-05-03T11:04:49.467Z,18.66
2019-05-03T11:09:49.844Z,20.81
2019-05-03T11:14:39.635Z,18.70
2019-05-03T11:19:34.775Z,18.41
2019-05-03T11:24:29.014Z,20.66
2019-05-03T11:29:24.760Z,22.25
2019-05-03T11:34:22.713Z,20.83
2019-05-03T11:39:16.921Z,19.30
2019-05-03T11:44:29.508Z,18.41
2019-05-03T11:49:25.376Z,18.87
2019-05-03T11:54:19.416Z,25.26
2019-05-03T11:59:14.775Z,24.86
2019-05-03T12:04:08.790Z,26.95
2019-05-03T12:09:05.629Z,21.60
2019-05-03T12:14:12.643Z,19.78
2019-05-03T12:19:16.531Z,28.43
2019-05-03T12:24:06.214Z,25.76
2019-05-03T12:28:59.185Z,22.18
2019-05-03T12:33:55.045Z,21.36
2019-05-03T12:38:49.127Z,21.65
2019-05-03T12:43:43.171Z,33.57
2019-05-03T12:48:37.174Z,37.67
2019-05-03T12:53:32.355Z,29.45
2019-05-03T12:58:28.251Z,28.45
2019-05-03T13:03:30.224Z,33.12
2019-05-03T13:08:35.240Z,39.30
2019-05-03T13:13:29.578Z,31.31
2019-05-03T13:18:25.245Z,25.85
2019-05-03T13:23:19.645Z,22.16
2019-05-03T13:28:15.301Z,23.12
2019-05-03T13:33:09.662Z,22.68
2019-05-03T13:38:03.643Z,22.04
2019-05-03T13:43:03.581Z,20.69
2019-05-03T13:47:55.266Z,22.12
2019-05-03T13:52:49.439Z,21.81
2019-05-03T13:57:45.826Z,18.97
2019-05-03T14:02:39.605Z,20.37
2019-05-03T14:07:35.327Z,20.42
2019-05-03T14:12:29.638Z,18.15
2019-05-03T14:17:25.415Z,17.08
2019-05-03T14:22:21.330Z,18.34
2019-05-03T14:27:17.129Z,18.40
2019-05-03T14:32:11.306Z,17.52
2019-05-03T14:37:05.258Z,17.35
2019-05-03T14:41:59.250Z,16.00
2019-05-03T14:46:56.651Z,15.65
2019-05-03T14:51:49.290Z,15.02
2019-05-03T14:56:50.982Z,14.34
2019-05-03T15:01:55.157Z,14.03
2019-05-03T15:06:48.963Z,15.15
2019-05-03T15:11:42.927Z,15.47
2019-05-03T15:16:37.435Z,16.11
2019-05-03T15:21:31.408Z,16.21
2019-05-03T15:26:25.555Z,14.98
2019-05-03T15:31:19.532Z,14.54
2019-05-03T15:36:15.429Z,15.23
2019-05-03T15:41:09.615Z,15.19
2019-05-03T15:46:20.812Z,15.45
2019-05-03T15:51:15.131Z,14.82
2019-05-03T15:56:09.300Z,14.44
2019-05-03T16:01:04.697Z,14.75
2019-05-03T16:05:58.993Z,14.33
2019-05-03T16:10:54.717Z,14.52
2019-05-03T16:15:48.832Z,13.88
2019-05-03T16:20:44.924Z,13.33
2019-05-03T16:25:38.933Z,13.02
2019-05-03T16:30:36.595Z,13.09
2019-05-03T16:35:30.718Z,12.83
2019-05-03T16:40:25.245Z,13.54
2019-05-03T16:45:19.519Z,13.82
2019-05-03T16:50:14.508Z,13.62
2019-05-03T16:55:09.010Z,13.59
2019-05-03T17:00:05.750Z,12.83
2019-05-03T17:05:07.834Z,13.01
2019-05-03T17:10:17.620Z,12.80
2019-05-03T17:15:12.142Z,12.50
2019-05-03T17:20:07.617Z,12.83
2019-05-03T17:25:04.309Z,12.22
2019-05-03T17:29:58.789Z,12.41
2019-05-03T17:34:54.708Z,12.00
2019-05-03T17:40:05.834Z,11.80
2019-05-03T17:44:59.845Z,12.18
2019-05-03T17:49:54.682Z,12.15
2019-05-03T17:54:50.659Z,12.01
2019-05-03T17:59:46.586Z,11.93
2019-05-03T18:04:42.488Z,11.61
2019-05-03T18:09:38.399Z,11.63
2019-05-03T18:14:34.365Z,11.85
2019-05-03T18:19:28.418Z,11.47
2019-05-03T18:24:22.410Z,11.52
2019-05-03T18:29:16.392Z,11.80
2019-05-03T18:34:18.917Z,11.32
2019-05-03T18:39:06.696Z,11.14
2019-05-03T18:44:14.923Z,11.20
2019-05-03T18:49:09.001Z,11.54
2019-05-03T18:54:05.356Z,11.47
2019-05-03T18:58:59.117Z,11.14
2019-05-03T19:03:55.480Z,11.37
2019-05-03T19:09:08.162Z,11.34
2019-05-03T19:14:04.690Z,11.12
2019-05-03T19:18:59.143Z,11.50
2019-05-03T19:23:53.190Z,11.13
2019-05-03T19:28:47.228Z,11.16
2019-05-03T19:33:41.341Z,11.32
2019-05-03T19:38:35.405Z,11.50
2019-05-03T19:43:29.430Z,11.37
2019-05-03T19:48:25.444Z,11.05
2019-05-03T19:53:27.263Z,11.30
2019-05-03T19:58:21.463Z,11.40
2019-05-03T20:03:20.328Z,11.26
2019-05-03T20:08:25.176Z,11.12
2019-05-03T20:13:31.754Z,11.26
2019-05-03T20:18:17.834Z,11.28
2019-05-03T20:23:10.981Z,11.28
2019-05-03T20:28:05.086Z,11.35
2019-05-03T20:32:59.079Z,11.41
2019-05-03T20:37:55.197Z,11.39
2019-05-03T20:42:54.369Z,11.05
2019-05-03T20:47:56.649Z,11.22
2019-05-03T20:52:50.762Z,11.32
2019-05-03T20:57:44.770Z,10.57
2019-05-03T21:02:50.529Z,10.70
2019-05-03T21:07:35.190Z,10.78
2019-05-03T21:12:31.394Z,10.64
2019-05-03T21:17:36.013Z,10.32
2019-05-03T21:22:31.415Z,10.41
2019-05-03T21:27:25.385Z,10.32
2019-05-03T21:32:19.647Z,10.02
2019-05-03T21:37:15.146Z,10.05
2019-05-03T21:42:09.175Z,10.41
2019-05-03T21:47:15.268Z,10.42
2019-05-03T21:52:09.492Z,10.42
2019-05-03T21:57:03.568Z,10.39
2019-05-03T22:01:57.948Z,10.56
2019-05-03T22:06:52.025Z,10.59
2019-05-03T22:11:46.011Z,10.62
2019-05-03T22:16:45.166Z,10.50
2019-05-03T22:21:55.164Z,10.58
2019-05-03T22:26:54.007Z,10.33
2019-05-03T22:31:48.205Z,10.24
2019-05-03T22:36:44.270Z,9.98
2019-05-03T22:41:38.118Z,9.88
2019-05-03T22:46:32.182Z,9.83
2019-05-03T22:51:26.283Z,9.77
2019-05-03T22:56:20.240Z,9.71
2019-05-03T23:01:16.432Z,9.63
2019-05-03T23:06:20.273Z,9.59
2019-05-03T23:11:06.955Z,9.58
2019-05-03T23:16:00.915Z,9.47
2019-05-03T23:21:05.542Z,9.36
2019-05-03T23:25:59.552Z,9.45
2019-05-03T23:30:54.833Z,9.40
2019-05-03T23:35:48.893Z,9.39
2019-05-03T23:40:44.672Z,9.46
2019-05-03T23:45:39.028Z,9.43
2019-05-03T23:50:32.992Z,9.37
2019-05-03T23:55:31.652Z,9.37
